Terminal Aerodrome Forecast
Issued by NWS Spokane, WA

Home | Current Version | Previous Version | Text Only | Print | Product List | Glossary On
Versions: 1 2 3 4 5 6 7 8 9 10 11 12 13 14 15 16 17 18 19 20
000
FTUS46 KOTX 251734
TAFEAT
TAF
KEAT 251734Z 2518/2618 31008KT P6SM VCSH OVC035
     FM252300 VRB04KT P6SM -RA BKN060 OVC100
     FM260500 30013KT P6SM -SHRA SCT050 BKN080
     FM260800 31015G25KT P6SM BKN250
     FM261400 33011KT P6SM SCT250=

USA.gov is the U.S. government's official web portal to all federal, state and local government web resources and services.